Time;durP1;ratioP1;P1;durP2;ratioP2;P2;SDS_P1;SDS_P2;PMS_P1;PMS_P2;Temp;Humidity;BMP_temperature;BMP_pressure;BME280_temperature;BME280_humidity;BME280_pressure;Samples;Min_cycle;Max_cycle;Signal;HPM_P1;HPM_P2
2021/11/05 00:00:06;;;;;;;;;;;;;;;22.43;51.77;100424.63;2084109;28;881;-58
2021/11/05 00:01:06;;;;;;;;;;;;;;;22.39;52.58;100417.59;2083701;28;1144;-58
2021/11/05 00:02:06;;;;;;;;;;;;;;;22.38;52.95;100419.44;2084074;28;771;-58
2021/11/05 00:03:07;;;;;;;;;;;;;;;22.38;51.49;100421.25;2083973;28;961;-58
2021/11/05 00:04:07;;;;;;;;;;;;;;;22.33;52.59;100414.28;2084015;28;981;-58
2021/11/05 00:05:07;;;;;;;;;;;;;;;22.37;52.29;100417.69;2083955;28;856;-58
2021/11/05 00:06:07;;;;;;;;;;;;;;;22.35;51.50;100422.28;2083730;28;826;-58
2021/11/05 00:07:08;;;;;;;;;;;;;;;22.30;52.25;100419.81;2083855;28;993;-58
2021/11/05 00:08:08;;;;;;;;;;;;;;;22.27;50.76;100414.56;2084073;28;803;-58
2021/11/05 00:09:09;;;;;;;;;;;;;;;22.32;52.30;100411.66;2083996;28;826;-59
2021/11/05 00:10:09;;;;;;;;;;;;;;;22.28;52.02;100402.84;2083979;28;823;-58
2021/11/05 00:11:09;;;;;;;;;;;;;;;22.30;51.29;100406.34;2083954;28;814;-58
2021/11/05 00:12:09;;;;;;;;;;;;;;;22.32;50.61;100417.94;2083927;28;1973;-58
2021/11/05 00:13:10;;;;;;;;;;;;;;;22.30;51.35;100402.75;2083956;28;854;-58
2021/11/05 00:14:10;;;;;;;;;;;;;;;22.31;52.99;100410.78;2083778;28;910;-58
2021/11/05 00:15:11;;;;;;;;;;;;;;;22.32;51.49;100401.75;2083950;28;1523;-58
2021/11/05 00:16:11;;;;;;;;;;;;;;;22.27;51.17;100408.28;2083926;28;1029;-58
2021/11/05 00:17:11;;;;;;;;;;;;;;;22.23;52.84;100407.56;2083689;28;839;-58
2021/11/05 00:18:11;;;;;;;;;;;;;;;22.22;52.98;100405.81;2083900;28;910;-58
2021/11/05 00:19:12;;;;;;;;;;;;;;;22.23;51.11;100404.88;2083754;28;756;-58
2021/11/05 00:20:13;;;;;;;;;;;;;;;22.28;51.01;100397.44;2083899;28;792;-58
2021/11/05 00:21:13;;;;;;;;;;;;;;;22.27;52.66;100400.19;2083868;28;1360;-58
2021/11/05 00:22:13;;;;;;;;;;;;;;;22.26;51.76;100398.44;2083653;28;826;-59
2021/11/05 00:23:14;;;;;;;;;;;;;;;22.25;51.13;100399.38;2083883;28;787;-58
2021/11/05 00:24:14;;;;;;;;;;;;;;;22.22;52.05;100395.03;2083859;28;871;-58
2021/11/05 00:25:15;;;;;;;;;;;;;;;22.20;53.05;100400.47;2083781;28;890;-58
2021/11/05 00:26:15;;;;;;;;;;;;;;;22.17;51.00;100397.06;2083894;28;767;-58
2021/11/05 00:27:15;;;;;;;;;;;;;;;22.16;51.62;100398.00;2083808;28;977;-58
2021/11/05 00:28:15;;;;;;;;;;;;;;;22.13;52.57;100400.84;2083853;28;843;-59
2021/11/05 00:29:15;;;;;;;;;;;;;;;22.13;52.07;100390.06;2083820;28;973;-58
2021/11/05 00:30:16;;;;;;;;;;;;;;;22.15;51.53;100391.72;2083801;28;819;-58
2021/11/05 00:31:16;;;;;;;;;;;;;;;22.16;51.65;100390.78;2083812;28;993;-59
2021/11/05 00:32:16;;;;;;;;;;;;;;;22.12;51.52;100388.31;2083701;28;1957;-58
2021/11/05 00:33:16;;;;;;;;;;;;;;;22.14;52.91;100391.81;2083459;28;1013;-58
2021/11/05 00:34:17;;;;;;;;;;;;;;;22.11;51.92;100386.56;2083776;28;774;-58
2021/11/05 00:35:18;;;;;;;;;;;;;;;22.10;52.00;100390.19;2083721;28;812;-59
2021/11/05 00:36:18;;;;;;;;;;;;;;;22.10;52.19;100379.41;2083795;28;803;-58
2021/11/05 00:37:18;;;;;;;;;;;;;;;22.10;53.35;100382.13;2083748;28;844;-58
2021/11/05 00:38:18;;;;;;;;;;;;;;;22.11;51.04;100381.16;2091152;28;1554;-58
2021/11/05 00:39:19;;;;;;;;;;;;;;;22.10;53.05;100374.03;2091960;28;976;-60
2021/11/05 00:40:20;;;;;;;;;;;;;;;22.06;51.88;100382.25;2091962;28;973;-58
2021/11/05 00:41:20;;;;;;;;;;;;;;;22.09;50.46;100375.81;2091955;28;929;-58
2021/11/05 00:42:20;;;;;;;;;;;;;;;22.12;51.88;100374.81;2092062;28;858;-58
2021/11/05 00:43:21;;;;;;;;;;;;;;;22.12;53.08;100369.44;2091694;28;974;-59
2021/11/05 00:44:22;;;;;;;;;;;;;;;22.09;50.70;100372.28;2091761;28;787;-58
2021/11/05 00:45:22;;;;;;;;;;;;;;;22.07;52.20;100372.34;2091962;28;759;-58
2021/11/05 00:46:22;;;;;;;;;;;;;;;22.06;51.41;100368.78;2091890;28;839;-58
2021/11/05 00:47:22;;;;;;;;;;;;;;;22.09;51.39;100366.88;2091972;28;1016;-58
2021/11/05 00:48:22;;;;;;;;;;;;;;;22.06;52.52;100363.38;2091942;28;763;-58
2021/11/05 00:49:22;;;;;;;;;;;;;;;22.03;50.85;100368.06;2091868;28;847;-58
2021/11/05 00:50:23;;;;;;;;;;;;;;;22.04;51.38;100365.28;2091902;28;1027;-58
2021/11/05 00:51:23;;;;;;;;;;;;;;;22.01;52.16;100362.72;2091888;28;882;-58
2021/11/05 00:52:23;;;;;;;;;;;;;;;22.04;51.92;100367.97;2091605;28;1882;-59
2021/11/05 00:53:23;;;;;;;;;;;;;;;22.04;52.10;100365.28;2091903;28;786;-58
2021/11/05 00:54:24;;;;;;;;;;;;;;;22.03;50.82;100363.53;2091829;28;1426;-59
2021/11/05 00:55:25;;;;;;;;;;;;;;;22.04;51.58;100354.47;2091750;28;880;-58
2021/11/05 00:56:25;;;;;;;;;;;;;;;22.02;51.36;100358.22;2091693;28;1030;-58
2021/11/05 00:57:25;;;;;;;;;;;;;;;22.05;51.79;100355.38;2091870;28;980;-58
2021/11/05 00:58:25;;;;;;;;;;;;;;;22.03;51.78;100354.56;2091794;28;1043;-58
2021/11/05 00:59:25;;;;;;;;;;;;;;;22.02;51.02;100353.69;2091811;28;858;-58
2021/11/05 01:00:26;;;;;;;;;;;;;;;21.95;51.79;100357.59;2091635;28;918;-58
2021/11/05 01:01:26;;;;;;;;;;;;;;;21.97;50.82;100352.16;2091810;28;1079;-59
2021/11/05 01:02:26;;;;;;;;;;;;;;;21.98;52.96;100349.38;2091712;28;775;-58
2021/11/05 01:03:26;;;;;;;;;;;;;;;21.96;51.53;100345.00;2091859;28;842;-59
2021/11/05 01:04:27;;;;;;;;;;;;;;;21.95;51.72;100348.66;2091854;28;795;-58
2021/11/05 01:05:27;;;;;;;;;;;;;;;21.98;51.89;100343.13;2091631;28;795;-58
2021/11/05 01:06:27;;;;;;;;;;;;;;;21.95;51.38;100346.81;2091621;28;1830;-58
2021/11/05 01:07:27;;;;;;;;;;;;;;;21.92;51.30;100341.56;2091773;28;642;-58
2021/11/05 01:08:27;;;;;;;;;;;;;;;21.88;51.91;100339.97;2091734;28;862;-58
2021/11/05 01:09:27;;;;;;;;;;;;;;;21.89;50.62;100339.91;2091836;28;1008;-59
2021/11/05 01:10:28;;;;;;;;;;;;;;;21.90;51.06;100332.69;2091698;28;1287;-59
2021/11/05 01:11:28;;;;;;;;;;;;;;;21.91;51.41;100334.44;2091636;28;1184;-58
2021/11/05 01:12:28;;;;;;;;;;;;;;;21.90;51.60;100338.97;2091634;28;1913;-58
2021/11/05 01:13:28;;;;;;;;;;;;;;;21.91;51.49;100334.44;2091509;28;1043;-58
2021/11/05 01:14:28;;;;;;;;;;;;;;;21.98;51.19;100338.59;2091710;28;1182;-58
2021/11/05 01:15:29;;;;;;;;;;;;;;;21.90;52.41;100327.28;2091717;28;1015;-58
2021/11/05 01:16:29;;;;;;;;;;;;;;;21.84;52.53;100328.47;2091653;28;1008;-58
2021/11/05 01:17:30;;;;;;;;;;;;;;;21.88;52.42;100337.25;2091729;28;783;-58
2021/11/05 01:18:30;;;;;;;;;;;;;;;21.85;53.23;100330.22;2091674;28;847;-59
2021/11/05 01:19:31;;;;;;;;;;;;;;;21.89;51.37;100330.94;2091754;28;811;-58
2021/11/05 01:20:31;;;;;;;;;;;;;;;21.86;52.08;100331.06;2091669;28;784;-58
2021/11/05 01:21:31;;;;;;;;;;;;;;;21.88;51.66;100326.47;2091494;28;830;-58
2021/11/05 01:22:31;;;;;;;;;;;;;;;21.84;53.98;100328.47;2091509;28;1243;-58
2021/11/05 01:23:32;;;;;;;;;;;;;;;21.84;52.81;100335.66;2091655;28;854;-58
2021/11/05 01:24:32;;;;;;;;;;;;;;;21.86;50.25;100328.38;2091632;28;1027;-58
2021/11/05 01:25:32;;;;;;;;;;;;;;;21.82;52.17;100329.47;2091690;28;989;-58
2021/11/05 01:26:32;;;;;;;;;;;;;;;21.81;51.50;100328.59;2091605;28;775;-58
2021/11/05 01:27:33;;;;;;;;;;;;;;;21.85;51.32;100322.13;2091604;28;977;-58
2021/11/05 01:28:33;;;;;;;;;;;;;;;21.86;51.24;100318.47;2091589;28;775;-58
2021/11/05 01:29:33;;;;;;;;;;;;;;;21.93;51.81;100321.75;2091473;28;1016;-58
2021/11/05 01:30:35;;;;;;;;;;;;;;;21.89;52.68;100320.13;2091666;28;778;-58
2021/11/05 01:31:35;;;;;;;;;;;;;;;21.84;51.44;100320.38;2091671;28;854;-58
2021/11/05 01:32:35;;;;;;;;;;;;;;;21.84;52.69;100319.47;2091125;28;1910;-57
2021/11/05 01:33:36;;;;;;;;;;;;;;;21.76;52.04;100318.03;2091595;28;795;-58
2021/11/05 01:34:36;;;;;;;;;;;;;;;21.77;52.63;100311.72;2091560;28;957;-57
2021/11/05 01:35:37;;;;;;;;;;;;;;;21.73;52.07;100306.50;2091581;28;819;-58
2021/11/05 01:36:37;;;;;;;;;;;;;;;21.73;52.98;100312.78;2091552;28;874;-58
2021/11/05 01:37:38;;;;;;;;;;;;;;;21.78;51.44;100299.09;2089660;28;1441;-58
2021/11/05 01:38:38;;;;;;;;;;;;;;;21.82;51.28;100299.81;2083330;28;1002;-57
2021/11/05 01:39:38;;;;;;;;;;;;;;;21.81;51.65;100298.94;2083386;28;850;-57
2021/11/05 01:40:41;;;;;;;;;;;;;;;21.86;50.92;100290.63;2083052;28;961;-57
2021/11/05 01:41:41;;;;;;;;;;;;;;;21.76;52.76;100284.81;2082955;28;763;-57
2021/11/05 01:42:43;;;;;;;;;;;;;;;21.75;51.75;100289.34;2083259;28;878;-59
2021/11/05 01:43:47;;;;;;;;;;;;;;;21.74;51.59;100281.31;2082971;28;911;-58
2021/11/05 01:44:47;;;;;;;;;;;;;;;21.79;51.71;100283.78;2083227;28;961;-58
2021/11/05 01:45:48;;;;;;;;;;;;;;;21.74;52.38;100287.59;2083294;28;874;-58
2021/11/05 01:46:48;;;;;;;;;;;;;;;21.80;52.19;100285.53;2083295;28;787;-58
2021/11/05 01:47:48;;;;;;;;;;;;;;;21.80;52.02;100282.81;2083269;28;842;-57
2021/11/05 01:48:48;;;;;;;;;;;;;;;21.82;52.37;100289.00;2083120;28;976;-58
2021/11/05 01:49:48;;;;;;;;;;;;;;;21.77;52.88;100287.44;2083289;28;1035;-58
2021/11/05 01:50:49;;;;;;;;;;;;;;;21.78;52.61;100285.59;2083225;28;1052;-58
2021/11/05 01:51:51;;;;;;;;;;;;;;;21.76;52.15;100283.00;2082868;28;937;-58
2021/11/05 01:52:51;;;;;;;;;;;;;;;21.77;52.13;100279.34;2083172;28;1949;-59
2021/11/05 01:53:52;;;;;;;;;;;;;;;21.84;51.50;100285.31;2083252;28;826;-59
2021/11/05 01:54:52;;;;;;;;;;;;;;;21.84;51.41;100287.13;2082845;28;973;-58
2021/11/05 01:55:52;;;;;;;;;;;;;;;21.84;52.29;100276.34;2083273;28;826;-59
2021/11/05 01:56:53;;;;;;;;;;;;;;;21.82;52.59;100275.53;2083088;28;1059;-59
2021/11/05 01:57:53;;;;;;;;;;;;;;;21.80;52.91;100278.31;2083166;28;803;-59
2021/11/05 01:58:53;;;;;;;;;;;;;;;21.81;51.21;100277.38;2083186;28;976;-59
2021/11/05 01:59:53;;;;;;;;;;;;;;;21.79;52.65;100271.19;2083176;28;1020;-60
2021/11/05 02:00:53;;;;;;;;;;;;;;;21.76;51.41;100272.22;2083187;28;847;-59
2021/11/05 02:01:54;;;;;;;;;;;;;;;21.72;52.49;100272.41;2083258;28;839;-59
2021/11/05 02:02:55;;;;;;;;;;;;;;;21.77;51.96;100268.56;2082767;28;1037;-60
2021/11/05 02:03:56;;;;;;;;;;;;;;;21.77;51.31;100265.88;2083203;28;826;-60
2021/11/05 02:04:56;;;;;;;;;;;;;;;21.80;51.33;100269.34;2083190;28;1040;-59
2021/11/05 02:05:58;;;;;;;;;;;;;;;21.80;52.85;100261.25;2083236;28;970;-59
2021/11/05 02:06:58;;;;;;;;;;;;;;;21.79;51.83;100260.41;2083236;28;1041;-59
2021/11/05 02:08:01;;;;;;;;;;;;;;;21.74;52.61;100257.03;2083083;28;945;-59
2021/11/05 02:09:02;;;;;;;;;;;;;;;21.77;52.25;100254.19;2083197;28;917;-59
2021/11/05 02:10:05;;;;;;;;;;;;;;;21.79;51.63;100256.81;2083071;28;1378;-59
2021/11/05 02:11:06;;;;;;;;;;;;;;;21.80;51.43;100258.56;2082996;28;1210;-59
2021/11/05 02:12:06;;;;;;;;;;;;;;;21.74;52.98;100259.75;2083131;28;1973;-58
2021/11/05 02:13:07;;;;;;;;;;;;;;;21.73;51.51;100258.88;2083047;28;1369;-59
2021/11/05 02:14:10;;;;;;;;;;;;;;;21.75;52.16;100256.09;2083116;28;1062;-59
2021/11/05 02:15:11;;;;;;;;;;;;;;;21.76;51.49;100250.66;2083111;28;946;-59
2021/11/05 02:16:12;;;;;;;;;;;;;;;21.68;52.99;100252.81;2083167;28;795;-59
2021/11/05 02:17:13;;;;;;;;;;;;;;;21.73;52.07;100255.28;2083147;28;839;-59
2021/11/05 02:18:13;;;;;;;;;;;;;;;21.72;51.33;100251.75;2082500;28;1202;-59
2021/11/05 02:19:16;;;;;;;;;;;;;;;21.72;51.41;100254.44;2082663;28;1010;-60
2021/11/05 02:20:22;;;;;;;;;;;;;;;21.72;52.19;100249.03;2083148;28;826;-59
2021/11/05 02:21:32;;;;;;;;;;;;;;;21.69;52.83;100251.88;2083041;28;991;-59
2021/11/05 02:22:32;;;;;;;;;;;;;;;21.69;53.38;100246.50;2083118;28;855;-59
2021/11/05 02:23:32;;;;;;;;;;;;;;;21.69;51.97;100238.41;2083114;28;973;-59
2021/11/05 02:24:32;;;;;;;;;;;;;;;21.77;51.40;100244.31;2083109;28;976;-59
2021/11/05 02:25:33;;;;;;;;;;;;;;;21.77;51.69;100249.69;2083101;28;890;-59
2021/11/05 02:26:33;;;;;;;;;;;;;;;21.74;52.54;100244.47;2083109;28;783;-59
2021/11/05 02:27:33;;;;;;;;;;;;;;;21.70;52.60;100241.97;2083100;28;969;-58
2021/11/05 02:28:36;;;;;;;;;;;;;;;21.69;53.07;100240.22;2083043;28;952;-59
2021/11/05 02:29:37;;;;;;;;;;;;;;;21.68;51.32;100233.06;2083124;28;824;-59
2021/11/05 02:30:37;;;;;;;;;;;;;;;21.73;50.70;100240.00;2083127;28;902;-59
2021/11/05 02:31:37;;;;;;;;;;;;;;;21.70;51.35;100233.88;2083138;28;823;-58
2021/11/05 02:32:39;;;;;;;;;;;;;;;21.71;52.02;100241.00;2082329;28;1949;-59
2021/11/05 02:33:39;;;;;;;;;;;;;;;21.73;51.87;100237.31;2082556;28;916;-58
2021/11/05 02:34:40;;;;;;;;;;;;;;;21.79;52.17;100236.13;2083106;28;1312;-58
2021/11/05 02:35:40;;;;;;;;;;;;;;;21.71;51.93;100233.81;2083055;28;871;-58
2021/11/05 02:36:40;;;;;;;;;;;;;;;21.70;52.21;100236.56;2083109;28;954;-59
2021/11/05 02:37:41;;;;;;;;;;;;;;;21.68;53.00;100233.06;2085187;28;1166;-58
2021/11/05 02:38:41;;;;;;;;;;;;;;;21.68;53.14;100230.38;2091298;28;791;-58
2021/11/05 02:39:42;;;;;;;;;;;;;;;21.67;52.06;100228.63;2091344;28;784;-59
2021/11/05 02:40:42;;;;;;;;;;;;;;;21.67;52.49;100232.22;2091075;28;844;-59
2021/11/05 02:41:43;;;;;;;;;;;;;;;21.69;52.41;100221.34;2091270;28;831;-59
2021/11/05 02:42:43;;;;;;;;;;;;;;;21.72;51.83;100227.47;2091297;28;1167;-59
2021/11/05 02:43:43;;;;;;;;;;;;;;;21.72;53.51;100224.78;2091251;28;965;-59
2021/11/05 02:44:44;;;;;;;;;;;;;;;21.67;52.74;100226.81;2091300;28;819;-58
2021/11/05 02:45:48;;;;;;;;;;;;;;;21.65;52.00;100222.44;2091278;28;771;-59
2021/11/05 02:46:48;;;;;;;;;;;;;;;21.68;52.04;100220.47;2091185;28;846;-59
2021/11/05 02:47:48;;;;;;;;;;;;;;;21.71;52.90;100223.03;2091337;28;1182;-59
2021/11/05 02:48:48;;;;;;;;;;;;;;;21.69;52.54;100226.72;2091231;28;818;-58
2021/11/05 02:49:49;;;;;;;;;;;;;;;21.67;51.71;100218.72;2091233;28;969;-59
2021/11/05 02:50:49;;;;;;;;;;;;;;;21.68;52.32;100219.59;2091254;28;953;-59
2021/11/05 02:51:50;;;;;;;;;;;;;;;21.72;52.66;100219.38;2091267;28;973;-58
2021/11/05 02:52:50;;;;;;;;;;;;;;;21.72;52.41;100216.69;2091175;28;1886;-59
2021/11/05 02:53:50;;;;;;;;;;;;;;;21.71;52.83;100219.44;2091716;28;755;-59
2021/11/05 02:54:51;;;;;;;;;;;;;;;21.69;53.43;100215.94;2092789;28;846;-58
2021/11/05 02:55:51;;;;;;;;;;;;;;;21.69;52.03;100222.22;2092842;28;856;-59
2021/11/05 02:56:51;;;;;;;;;;;;;;;21.69;52.34;100219.53;2092655;28;1094;-59
2021/11/05 02:57:52;;;;;;;;;;;;;;;21.71;51.06;100220.34;2092831;28;996;-58
2021/11/05 02:58:52;;;;;;;;;;;;;;;21.71;52.19;100224.84;2092720;28;814;-59
2021/11/05 02:59:52;;;;;;;;;;;;;;;21.67;52.13;100221.44;2092812;28;830;-59
2021/11/05 03:00:53;;;;;;;;;;;;;;;21.70;51.47;100213.19;2092778;28;984;-59
2021/11/05 03:01:53;;;;;;;;;;;;;;;21.72;51.62;100219.38;2092708;28;850;-59
2021/11/05 03:02:53;;;;;;;;;;;;;;;21.65;52.74;100220.63;2092704;28;1068;-59
2021/11/05 03:03:58;;;;;;;;;;;;;;;21.68;52.33;100220.47;2092559;28;973;-59
2021/11/05 03:04:58;;;;;;;;;;;;;;;21.68;53.26;100223.19;2092828;28;886;-58
2021/11/05 03:05:58;;;;;;;;;;;;;;;21.65;52.07;100217.03;2092775;28;1015;-59
2021/11/05 03:07:00;;;;;;;;;;;;;;;21.69;51.45;100214.16;2092596;28;759;-59
2021/11/05 03:08:00;;;;;;;;;;;;;;;21.72;51.36;100216.69;2092727;28;1122;-59
2021/11/05 03:09:05;;;;;;;;;;;;;;;21.69;51.50;100221.34;2092716;28;842;-58
2021/11/05 03:10:06;;;;;;;;;;;;;;;21.67;52.87;100213.34;2092729;28;981;-59
2021/11/05 03:11:11;;;;;;;;;;;;;;;21.65;52.45;100217.03;2092588;28;1211;-59
2021/11/05 03:12:12;;;;;;;;;;;;;;;21.61;51.88;100214.47;2092716;28;1969;-59
2021/11/05 03:13:12;;;;;;;;;;;;;;;21.63;52.78;100217.13;2092693;28;775;-58
2021/11/05 03:14:12;;;;;;;;;;;;;;;21.68;52.62;100219.59;2092671;28;1016;-59
2021/11/05 03:15:13;;;;;;;;;;;;;;;21.64;52.61;100216.19;2092704;28;841;-58
2021/11/05 03:16:13;;;;;;;;;;;;;;;21.68;52.12;100216.91;2092689;28;746;-59
2021/11/05 03:17:14;;;;;;;;;;;;;;;21.59;52.86;100221.75;2092486;28;968;-59
2021/11/05 03:18:15;;;;;;;;;;;;;;;21.62;51.88;100221.63;2092675;28;782;-59
2021/11/05 03:19:16;;;;;;;;;;;;;;;21.65;52.20;100217.94;2092637;28;779;-59
2021/11/05 03:20:17;;;;;;;;;;;;;;;21.64;52.24;100220.69;2092443;28;786;-59
2021/11/05 03:21:17;;;;;;;;;;;;;;;21.64;52.76;100218.88;2092616;28;901;-59
2021/11/05 03:22:18;;;;;;;;;;;;;;;21.62;51.73;100218.94;2092551;28;774;-59
2021/11/05 03:23:18;;;;;;;;;;;;;;;21.66;52.42;100211.59;2092633;28;968;-59
2021/11/05 03:24:18;;;;;;;;;;;;;;;21.67;52.52;100213.34;2092619;28;857;-58
2021/11/05 03:25:19;;;;;;;;;;;;;;;21.65;51.91;100209.84;2092514;28;765;-59
2021/11/05 03:26:19;;;;;;;;;;;;;;;21.68;51.29;100209.69;2092641;28;826;-59
2021/11/05 03:27:19;;;;;;;;;;;;;;;21.65;53.07;100200.88;2092601;28;819;-61
2021/11/05 03:28:20;;;;;;;;;;;;;;;21.68;51.78;100207.00;2092665;28;1028;-59
2021/11/05 03:29:20;;;;;;;;;;;;;;;21.56;52.31;100207.56;2092561;28;826;-59
2021/11/05 03:30:20;;;;;;;;;;;;;;;21.61;51.78;100208.22;2092539;28;1062;-59
2021/11/05 03:31:20;;;;;;;;;;;;;;;21.60;52.11;100203.75;2092530;28;854;-58
2021/11/05 03:32:20;;;;;;;;;;;;;;;21.67;53.25;100204.38;2092380;28;1947;-59
2021/11/05 03:33:21;;;;;;;;;;;;;;;21.68;51.33;100206.13;2092526;28;952;-58
2021/11/05 03:34:21;;;;;;;;;;;;;;;21.65;52.32;100200.88;2092547;28;980;-59
2021/11/05 03:35:21;;;;;;;;;;;;;;;21.65;51.64;100204.47;2092477;28;838;-58
2021/11/05 03:36:21;;;;;;;;;;;;;;;21.66;51.83;100206.22;2092517;28;1305;-59
2021/11/05 03:37:21;;;;;;;;;;;;;;;21.71;51.97;100208.66;2092436;28;838;-59
2021/11/05 03:38:21;;;;;;;;;;;;;;;21.67;51.75;100207.94;2084609;28;1256;-59
2021/11/05 03:39:22;;;;;;;;;;;;;;;21.64;52.68;100202.72;2084252;28;807;-58
2021/11/05 03:40:22;;;;;;;;;;;;;;;21.67;51.24;100204.38;2084179;28;779;-58
2021/11/05 03:41:22;;;;;;;;;;;;;;;21.66;51.96;100205.31;2084255;28;822;-59
2021/11/05 03:42:22;;;;;;;;;;;;;;;21.59;51.83;100202.88;2084174;28;763;-59
2021/11/05 03:43:23;;;;;;;;;;;;;;;21.58;52.59;100201.13;2084034;28;957;-58
2021/11/05 03:44:23;;;;;;;;;;;;;;;21.64;52.92;100196.44;2084230;28;845;-58
2021/11/05 03:45:23;;;;;;;;;;;;;;;21.65;51.78;100198.19;2084177;28;902;-59
2021/11/05 03:46:23;;;;;;;;;;;;;;;21.59;52.48;100194.78;2084124;28;918;-58
2021/11/05 03:47:23;;;;;;;;;;;;;;;21.61;52.85;100197.44;2084203;28;827;-58
2021/11/05 03:48:23;;;;;;;;;;;;;;;21.60;52.13;100191.16;2084172;28;1028;-58
2021/11/05 03:49:24;;;;;;;;;;;;;;;21.66;51.25;100195.44;2084164;28;787;-59
2021/11/05 03:50:24;;;;;;;;;;;;;;;21.54;52.90;100195.97;2084147;28;779;-58
2021/11/05 03:51:24;;;;;;;;;;;;;;;21.58;52.57;100159.84;2084125;28;1469;-59
2021/11/05 03:52:25;;;;;;;;;;;;;;;21.56;52.06;100153.66;2083974;28;1886;-59
2021/11/05 03:53:25;;;;;;;;;;;;;;;21.53;52.74;100149.28;2083950;28;1036;-59
2021/11/05 03:54:25;;;;;;;;;;;;;;;21.44;53.35;100156.00;2084057;28;1023;-59
2021/11/05 03:55:25;;;;;;;;;;;;;;;21.40;53.44;100148.13;2084066;28;772;-59
2021/11/05 03:56:25;;;;;;;;;;;;;;;21.47;53.99;100142.38;2083894;28;1071;-58
2021/11/05 03:57:25;;;;;;;;;;;;;;;21.51;51.97;100128.75;2084164;28;784;-58
2021/11/05 03:58:26;;;;;;;;;;;;;;;21.44;53.61;100147.91;2083949;28;961;-59
2021/11/05 03:59:26;;;;;;;;;;;;;;;21.51;52.62;100226.63;2084026;28;1032;-58
2021/11/05 04:00:26;;;;;;;;;;;;;;;21.64;52.51;100207.22;2084024;28;760;-59
2021/11/05 04:01:26;;;;;;;;;;;;;;;21.58;52.65;100194.88;2084077;28;874;-58
2021/11/05 04:02:27;;;;;;;;;;;;;;;21.59;51.76;100191.25;2084058;28;981;-59
2021/11/05 04:03:27;;;;;;;;;;;;;;;21.56;52.90;100189.53;2084009;28;846;-59
2021/11/05 04:04:27;;;;;;;;;;;;;;;21.55;53.05;100195.03;2083763;28;811;-58
2021/11/05 04:05:27;;;;;;;;;;;;;;;21.61;53.12;100190.19;2084039;28;960;-59
2021/11/05 04:06:27;;;;;;;;;;;;;;;21.58;51.52;100187.66;2083887;28;894;-58
2021/11/05 04:07:28;;;;;;;;;;;;;;;21.57;53.11;100180.50;2084029;28;819;-59
2021/11/05 04:08:28;;;;;;;;;;;;;;;21.66;51.90;100186.44;2084028;28;1234;-58
2021/11/05 04:09:28;;;;;;;;;;;;;;;21.62;51.87;100186.59;2083948;28;725;-59
2021/11/05 04:10:28;;;;;;;;;;;;;;;21.63;52.32;100192.88;2083989;28;839;-58
2021/11/05 04:11:29;;;;;;;;;;;;;;;21.53;52.76;100178.91;2083961;28;969;-58
2021/11/05 04:12:29;;;;;;;;;;;;;;;21.45;51.93;100159.56;2083854;28;1914;-59
2021/11/05 04:13:29;;;;;;;;;;;;;;;21.47;52.92;100155.84;2083986;28;949;-58
2021/11/05 04:14:29;;;;;;;;;;;;;;;21.56;52.42;100159.03;2083664;28;921;-59
2021/11/05 04:15:29;;;;;;;;;;;;;;;21.62;52.53;100159.63;2083988;28;1020;-59
2021/11/05 04:16:29;;;;;;;;;;;;;;;21.58;52.60;100151.75;2083864;28;973;-59
2021/11/05 04:17:29;;;;;;;;;;;;;;;21.59;51.86;100154.38;2083933;28;830;-58
2021/11/05 04:18:30;;;;;;;;;;;;;;;21.49;51.88;100153.06;2083936;28;1021;-59
2021/11/05 04:19:30;;;;;;;;;;;;;;;21.59;52.28;100154.38;2083962;28;1032;-58
2021/11/05 04:20:30;;;;;;;;;;;;;;;21.51;52.87;100151.16;2083857;28;859;-59
2021/11/05 04:21:30;;;;;;;;;;;;;;;21.43;53.15;100151.53;2083933;28;937;-58
2021/11/05 04:22:31;;;;;;;;;;;;;;;21.44;53.19;100152.44;2083861;28;763;-59
2021/11/05 04:23:31;;;;;;;;;;;;;;;21.48;53.23;100149.50;2083924;28;965;-59
2021/11/05 04:24:32;;;;;;;;;;;;;;;21.40;52.90;100148.13;2083775;28;1028;-59
2021/11/05 04:25:33;;;;;;;;;;;;;;;21.50;53.09;100149.41;2083833;28;862;-59
2021/11/05 04:26:34;;;;;;;;;;;;;;;21.46;52.45;100143.31;2083701;28;775;-58
2021/11/05 04:27:34;;;;;;;;;;;;;;;21.45;52.52;100140.72;2083887;28;1031;-59
2021/11/05 04:28:35;;;;;;;;;;;;;;;21.58;52.38;100151.75;2083819;28;933;-58
2021/11/05 04:29:35;;;;;;;;;;;;;;;21.55;52.90;100146.53;2083821;28;795;-59
2021/11/05 04:30:36;;;;;;;;;;;;;;;21.58;53.31;100149.06;2083862;28;851;-58
2021/11/05 04:31:36;;;;;;;;;;;;;;;21.56;53.02;100142.88;2083812;28;1048;-59
2021/11/05 04:32:37;;;;;;;;;;;;;;;21.38;52.91;100150.03;2083606;28;1953;-58
2021/11/05 04:33:37;;;;;;;;;;;;;;;21.43;52.38;100142.59;2083835;28;764;-59
2021/11/05 04:34:37;;;;;;;;;;;;;;;21.46;52.74;100137.94;2083730;28;839;-58
2021/11/05 04:35:38;;;;;;;;;;;;;;;21.54;52.16;100144.78;2083576;28;1390;-58
2021/11/05 04:36:39;;;;;;;;;;;;;;;21.53;52.95;100140.31;2083822;28;1244;-59
2021/11/05 04:37:39;;;;;;;;;;;;;;;21.44;52.99;100141.66;2085743;28;1476;-60
2021/11/05 04:38:39;;;;;;;;;;;;;;;21.36;54.13;100131.22;2091959;28;1194;-59
2021/11/05 04:39:40;;;;;;;;;;;;;;;21.35;53.90;100140.25;2092074;28;1052;-58
2021/11/05 04:40:40;;;;;;;;;;;;;;;21.39;52.80;100141.00;2091944;28;1438;-59
2021/11/05 04:41:41;;;;;;;;;;;;;;;21.48;51.85;100136.03;2092042;28;755;-58
2021/11/05 04:42:41;;;;;;;;;;;;;;;21.59;52.42;100138.19;2091877;28;1017;-59
2021/11/05 04:43:41;;;;;;;;;;;;;;;21.54;52.17;100137.53;2091933;28;802;-58
2021/11/05 04:44:41;;;;;;;;;;;;;;;21.56;52.95;100137.50;2091971;28;791;-59
2021/11/05 04:45:41;;;;;;;;;;;;;;;21.55;52.28;100138.44;2091773;28;1012;-59
2021/11/05 04:46:42;;;;;;;;;;;;;;;21.57;52.81;100140.09;2091841;28;1197;-59
2021/11/05 04:47:42;;;;;;;;;;;;;;;21.44;52.56;100133.56;2091817;28;992;-59
2021/11/05 04:48:42;;;;;;;;;;;;;;;21.41;52.67;100141.81;2091849;28;780;-58
2021/11/05 04:49:42;;;;;;;;;;;;;;;21.41;53.38;100142.66;2091941;28;767;-59
2021/11/05 04:50:42;;;;;;;;;;;;;;;21.43;54.02;100137.22;2091887;28;890;-59
2021/11/05 04:51:43;;;;;;;;;;;;;;;21.40;53.17;100137.38;2091971;28;1135;-59
2021/11/05 04:52:47;;;;;;;;;;;;;;;21.48;52.17;100137.88;2091844;28;1890;-58
2021/11/05 04:53:47;;;;;;;;;;;;;;;21.50;52.18;100133.25;2091705;28;775;-59
2021/11/05 04:54:48;;;;;;;;;;;;;;;21.39;53.59;100139.16;2091962;28;1059;-59
2021/11/05 04:55:48;;;;;;;;;;;;;;;21.51;53.19;100139.53;2091872;28;819;-58
2021/11/05 04:56:48;;;;;;;;;;;;;;;21.43;52.00;100132.69;2091766;28;1070;-59
2021/11/05 04:57:49;;;;;;;;;;;;;;;21.50;52.85;100135.94;2091886;28;767;-58
2021/11/05 04:58:49;;;;;;;;;;;;;;;21.54;52.15;100137.53;2091782;28;1031;-59
2021/11/05 04:59:50;;;;;;;;;;;;;;;21.40;52.53;100137.38;2091844;28;787;-59
2021/11/05 05:00:50;;;;;;;;;;;;;;;21.39;52.92;100130.22;2091836;28;799;-59
2021/11/05 05:01:50;;;;;;;;;;;;;;;21.38;52.97;100128.47;2091875;28;779;-58
2021/11/05 05:02:50;;;;;;;;;;;;;;;21.44;53.55;100125.50;2091857;28;854;-59
2021/11/05 05:03:50;;;;;;;;;;;;;;;21.35;53.62;100129.47;2091785;28;1012;-59
2021/11/05 05:04:50;;;;;;;;;;;;;;;21.95;51.79;100123.00;2091764;28;1229;-58
2021/11/05 05:05:51;;;;;;;;;;;;;;;22.45;50.29;100116.00;2091788;28;741;-58
2021/11/05 05:06:51;;;;;;;;;;;;;;;22.73;48.47;100108.25;2091749;28;775;-58
2021/11/05 05:07:51;;;;;;;;;;;;;;;22.92;48.54;100109.00;2091874;28;1027;-58
2021/11/05 05:08:51;;;;;;;;;;;;;;;23.06;48.65;100110.03;2091613;28;849;-58
2021/11/05 05:09:51;;;;;;;;;;;;;;;23.14;47.66;100110.47;2091921;28;849;-58
2021/11/05 05:10:51;;;;;;;;;;;;;;;23.19;47.34;100100.28;2091664;28;1243;-58
2021/11/05 05:11:52;;;;;;;;;;;;;;;23.28;47.75;100103.47;2091694;28;968;-58
2021/11/05 05:12:52;;;;;;;;;;;;;;;23.32;47.00;100105.91;2091676;28;1907;-58
2021/11/05 05:13:52;;;;;;;;;;;;;;;23.36;48.40;100106.63;2091749;28;770;-57
2021/11/05 05:14:53;;;;;;;;;;;;;;;23.44;47.20;100103.47;2091702;28;830;-57
2021/11/05 05:15:53;;;;;;;;;;;;;;;23.51;47.25;100097.63;2091694;28;779;-58
2021/11/05 05:16:53;;;;;;;;;;;;;;;23.60;47.83;100100.75;2091076;28;973;-58